Time;durP1;ratioP1;P1;durP2;ratioP2;P2;SDS_P1;SDS_P2;PMS_P1;PMS_P2;Temp;Humidity;BMP_temperature;BMP_pressure;BME280_temperature;BME280_humidity;BME280_pressure;Samples;Min_cycle;Max_cycle;Signal;HPM_P1;HPM_P2
2022/08/24 00:00:51;;;;;;;43.03;33.13;;;;;;;;;;5049409;28;20077;-61
2022/08/24 00:03:17;;;;;;;25.03;20.27;;;;;;;;;;5050350;28;20142;-61
2022/08/24 00:05:43;;;;;;;20.23;16.77;;;;;;;;;;5049875;28;20095;-61
2022/08/24 00:08:09;;;;;;;27.93;22.27;;;;;;;;;;5049208;28;20041;-61
2022/08/24 00:10:35;;;;;;;43.07;33.87;;;;;;;;;;5050825;28;20048;-61
2022/08/24 00:13:01;;;;;;;39.27;33.87;;;;;;;;;;5050047;28;20056;-61
2022/08/24 00:15:27;;;;;;;38.53;33.93;;;;;;;;;;5050158;28;20521;-60
2022/08/24 00:17:53;;;;;;;44.37;33.60;;;;;;;;;;5050412;28;20055;-62
2022/08/24 00:20:19;;;;;;;47.03;39.17;;;;;;;;;;5049584;28;20049;-60
2022/08/24 00:22:45;;;;;;;61.70;44.70;;;;;;;;;;5050113;28;20136;-61
2022/08/24 00:25:12;;;;;;;53.70;41.90;;;;;;;;;;5050320;28;20037;-61
2022/08/24 00:27:39;;;;;;;33.40;27.10;;;;;;;;;;5050563;28;20053;-61
2022/08/24 00:30:07;;;;;;;57.27;41.77;;;;;;;;;;5050015;28;20433;-61
2022/08/24 00:32:34;;;;;;;61.03;47.60;;;;;;;;;;5049019;28;20048;-61
2022/08/24 00:35:00;;;;;;;56.47;45.03;;;;;;;;;;5049644;28;20475;-61
2022/08/24 00:37:27;;;;;;;56.90;45.87;;;;;;;;;;5049829;28;20037;-61
2022/08/24 00:39:54;;;;;;;57.00;41.43;;;;;;;;;;5048484;28;20077;-61
2022/08/24 00:42:20;;;;;;;53.10;39.17;;;;;;;;;;5049294;28;20274;-61
2022/08/24 00:44:46;;;;;;;47.63;38.40;;;;;;;;;;5049713;28;20127;-61
2022/08/24 00:47:25;;;;;;;48.37;37.80;;;;;;;;;;5049781;28;20095;-61
2022/08/24 00:49:56;;;;;;;49.23;37.07;;;;;;;;;;5049429;28;20045;-61
2022/08/24 00:52:25;;;;;;;35.80;28.23;;;;;;;;;;5049255;28;20053;-61
2022/08/24 00:55:05;;;;;;;35.90;29.57;;;;;;;;;;5049800;28;20127;-61
2022/08/24 00:57:33;;;;;;;49.13;38.17;;;;;;;;;;5049172;28;20049;-60
2022/08/24 01:00:01;;;;;;;50.53;37.60;;;;;;;;;;5049303;28;20048;-61
2022/08/24 01:02:31;;;;;;;47.83;38.07;;;;;;;;;;5049310;28;20037;-61
2022/08/24 01:04:58;;;;;;;60.27;45.27;;;;;;;;;;5049287;28;20410;-61
2022/08/24 01:07:26;;;;;;;44.83;36.73;;;;;;;;;;5048739;28;20045;-61
2022/08/24 01:09:53;;;;;;;47.53;37.43;;;;;;;;;;5048706;28;20045;-61
2022/08/24 01:12:19;;;;;;;60.07;47.13;;;;;;;;;;5048214;28;20040;-61
2022/08/24 01:14:45;;;;;;;70.60;51.17;;;;;;;;;;5049201;28;20099;-61
2022/08/24 01:19:57;;;;;;;62.57;47.27;;;;;;;;;;5048731;28;20083;-61
2022/08/24 01:22:26;;;;;;;76.10;54.50;;;;;;;;;;5048738;28;20079;-61
2022/08/24 01:24:52;;;;;;;66.03;50.37;;;;;;;;;;5049123;28;20524;-61
2022/08/24 01:27:18;;;;;;;79.33;53.83;;;;;;;;;;5049152;28;20089;-61
2022/08/24 01:29:45;;;;;;;75.50;51.63;;;;;;;;;;5048734;28;20052;-61
2022/08/24 01:32:12;;;;;;;80.63;54.77;;;;;;;;;;5048530;28;20049;-61
2022/08/24 01:34:38;;;;;;;85.03;58.57;;;;;;;;;;5048655;28;20427;-61
2022/08/24 01:37:07;;;;;;;96.17;64.13;;;;;;;;;;5048006;28;20126;-61
2022/08/24 01:39:44;;;;;;;116.63;71.93;;;;;;;;;;5047968;28;20167;-61
2022/08/24 01:42:13;;;;;;;81.27;58.30;;;;;;;;;;5048125;28;20174;-61
2022/08/24 01:44:40;;;;;;;92.00;61.47;;;;;;;;;;5046940;28;20045;-61
2022/08/24 01:47:06;;;;;;;103.33;67.10;;;;;;;;;;5048824;28;20049;-61
2022/08/24 01:49:35;;;;;;;100.27;64.63;;;;;;;;;;5047917;28;20081;-61
2022/08/24 01:52:03;;;;;;;100.57;64.33;;;;;;;;;;5047579;28;20124;-61
2022/08/24 01:54:30;;;;;;;77.70;56.13;;;;;;;;;;5048409;28;20475;-61
2022/08/24 01:56:56;;;;;;;93.73;62.13;;;;;;;;;;5048502;28;20048;-61
2022/08/24 01:59:22;;;;;;;85.67;60.03;;;;;;;;;;5048020;28;20060;-61
2022/08/24 02:01:52;;;;;;;74.10;54.90;;;;;;;;;;5048519;28;20405;-61
2022/08/24 02:04:18;;;;;;;72.27;51.90;;;;;;;;;;5048472;28;20056;-61
2022/08/24 02:06:44;;;;;;;72.90;48.33;;;;;;;;;;5048424;28;20048;-61
2022/08/24 02:09:11;;;;;;;72.20;50.13;;;;;;;;;;5048590;28;20077;-61
2022/08/24 02:11:37;;;;;;;78.20;52.63;;;;;;;;;;5047795;28;20049;-61
2022/08/24 02:14:04;;;;;;;58.57;43.23;;;;;;;;;;5047939;28;20044;-61
2022/08/24 02:16:30;;;;;;;52.23;40.33;;;;;;;;;;5048830;28;20044;-61
2022/08/24 02:18:56;;;;;;;64.90;45.53;;;;;;;;;;5047078;28;20041;-60
2022/08/24 02:21:22;;;;;;;70.97;48.40;;;;;;;;;;5048169;28;20475;-61
2022/08/24 02:23:48;;;;;;;67.03;48.13;;;;;;;;;;5047261;28;20136;-60
2022/08/24 02:26:14;;;;;;;69.83;47.97;;;;;;;;;;5048298;28;20045;-61
2022/08/24 02:28:40;;;;;;;67.10;48.07;;;;;;;;;;5047388;28;20106;-61
2022/08/24 02:31:07;;;;;;;55.27;44.10;;;;;;;;;;5047339;28;20114;-61
2022/08/24 02:33:34;;;;;;;56.67;43.17;;;;;;;;;;5047811;28;20049;-61
2022/08/24 02:36:01;;;;;;;72.93;50.87;;;;;;;;;;5047852;28;20049;-61
2022/08/24 02:38:27;;;;;;;64.57;47.37;;;;;;;;;;5047632;28;20383;-61
2022/08/24 02:40:54;;;;;;;59.23;42.83;;;;;;;;;;5047035;28;20049;-61
2022/08/24 02:43:20;;;;;;;63.93;44.23;;;;;;;;;;5047722;28;20052;-61
2022/08/24 02:45:46;;;;;;;59.37;44.10;;;;;;;;;;5047758;28;20049;-60
2022/08/24 02:48:13;;;;;;;50.43;39.27;;;;;;;;;;5048012;28;20045;-61
2022/08/24 02:50:41;;;;;;;58.97;42.43;;;;;;;;;;5047521;28;20060;-61
2022/08/24 02:53:07;;;;;;;69.60;47.53;;;;;;;;;;5046883;28;20093;-61
2022/08/24 02:55:33;;;;;;;62.57;44.77;;;;;;;;;;5047039;28;20056;-61
2022/08/24 02:57:59;;;;;;;68.33;48.27;;;;;;;;;;5047073;28;20482;-61
2022/08/24 03:00:26;;;;;;;75.20;49.67;;;;;;;;;;5047234;28;20052;-61
2022/08/24 03:02:53;;;;;;;50.90;38.17;;;;;;;;;;5047763;28;20132;-61
2022/08/24 03:05:19;;;;;;;58.23;44.20;;;;;;;;;;5046424;28;20045;-61
2022/08/24 03:07:45;;;;;;;58.53;41.57;;;;;;;;;;5047080;28;20048;-61
2022/08/24 03:10:12;;;;;;;59.07;43.10;;;;;;;;;;5047201;28;20048;-61
2022/08/24 03:12:38;;;;;;;40.20;30.67;;;;;;;;;;5046581;28;20475;-60
2022/08/24 03:15:05;;;;;;;31.03;26.93;;;;;;;;;;5046546;28;20048;-60
2022/08/24 03:17:32;;;;;;;69.77;45.93;;;;;;;;;;5046711;28;20053;-61
2022/08/24 03:19:59;;;;;;;52.20;38.93;;;;;;;;;;5047123;28;20132;-61
2022/08/24 03:22:25;;;;;;;57.97;40.60;;;;;;;;;;5046856;28;20041;-60
2022/08/24 03:24:52;;;;;;;48.90;38.33;;;;;;;;;;5046874;28;20136;-61
2022/08/24 03:27:19;;;;;;;51.87;38.37;;;;;;;;;;5047142;28;20051;-60
2022/08/24 03:29:45;;;;;;;41.93;33.17;;;;;;;;;;5047135;28;20060;-61
2022/08/24 03:32:11;;;;;;;49.57;37.77;;;;;;;;;;5047378;28;20049;-61
2022/08/24 03:34:37;;;;;;;69.83;48.97;;;;;;;;;;5047244;28;20712;-61
2022/08/24 03:37:03;;;;;;;63.83;48.30;;;;;;;;;;5049967;28;20099;-61
2022/08/24 03:39:30;;;;;;;65.70;49.27;;;;;;;;;;5050625;28;20048;-61
2022/08/24 03:41:56;;;;;;;58.10;46.30;;;;;;;;;;5050452;28;20048;-61
2022/08/24 03:44:24;;;;;;;62.57;46.23;;;;;;;;;;5050317;28;20048;-61
2022/08/24 03:46:51;;;;;;;77.40;53.97;;;;;;;;;;5050496;28;20083;-61
2022/08/24 03:49:18;;;;;;;84.17;55.20;;;;;;;;;;5050035;28;20049;-61
2022/08/24 03:51:44;;;;;;;61.67;45.37;;;;;;;;;;5050298;28;20053;-61
2022/08/24 03:54:11;;;;;;;65.43;47.97;;;;;;;;;;5050584;28;20044;-61
2022/08/24 03:56:37;;;;;;;68.37;49.80;;;;;;;;;;5050264;28;20068;-61
2022/08/24 03:59:03;;;;;;;65.60;47.80;;;;;;;;;;5050361;28;20041;-61
2022/08/24 04:01:32;;;;;;;59.57;42.63;;;;;;;;;;5050522;28;20041;-61
2022/08/24 04:03:58;;;;;;;60.73;42.27;;;;;;;;;;5050750;28;20045;-61
2022/08/24 04:06:24;;;;;;;62.90;42.93;;;;;;;;;;5050577;28;20057;-61
2022/08/24 04:08:51;;;;;;;45.97;34.27;;;;;;;;;;5049458;28;20499;-61
2022/08/24 04:11:19;;;;;;;49.80;36.30;;;;;;;;;;5050377;28;20059;-61
2022/08/24 04:13:46;;;;;;;62.90;41.93;;;;;;;;;;5050233;28;20140;-61
2022/08/24 04:16:14;;;;;;;45.87;35.00;;;;;;;;;;5048412;28;20052;-61
2022/08/24 04:18:41;;;;;;;43.90;33.07;;;;;;;;;;5050023;28;20037;-61
2022/08/24 04:21:15;;;;;;;52.70;38.03;;;;;;;;;;5049302;28;20513;-61
2022/08/24 04:23:41;;;;;;;63.50;45.10;;;;;;;;;;5049597;28;20043;-61
2022/08/24 04:26:07;;;;;;;79.60;51.20;;;;;;;;;;5049956;28;20045;-61
2022/08/24 04:28:33;;;;;;;68.50;50.40;;;;;;;;;;5049575;28;20068;-61
2022/08/24 04:30:59;;;;;;;80.67;56.03;;;;;;;;;;5049529;28;20063;-61
2022/08/24 04:33:25;;;;;;;63.40;44.67;;;;;;;;;;5049973;28;20052;-61
2022/08/24 04:35:51;;;;;;;58.10;41.57;;;;;;;;;;5049907;28;20049;-61
2022/08/24 04:38:18;;;;;;;61.87;43.90;;;;;;;;;;5049646;28;20037;-61
2022/08/24 04:40:45;;;;;;;65.00;48.40;;;;;;;;;;5049472;28;20073;-61
2022/08/24 04:43:15;;;;;;;92.90;62.83;;;;;;;;;;5049407;28;20044;-61
2022/08/24 04:45:43;;;;;;;84.80;56.30;;;;;;;;;;5049333;28;20049;-61
2022/08/24 04:48:09;;;;;;;83.63;55.40;;;;;;;;;;5048330;28;20512;-61
2022/08/24 04:50:36;;;;;;;74.83;47.70;;;;;;;;;;5049283;28;20055;-60
2022/08/24 04:53:04;;;;;;;80.43;52.87;;;;;;;;;;5049187;28;20037;-61
2022/08/24 04:55:30;;;;;;;85.03;55.33;;;;;;;;;;5048764;28;20052;-61
2022/08/24 04:57:56;;;;;;;88.13;55.90;;;;;;;;;;5048055;28;20139;-61
2022/08/24 05:00:22;;;;;;;80.90;51.73;;;;;;;;;;5048331;28;20045;-61
2022/08/24 05:02:48;;;;;;;68.10;46.97;;;;;;;;;;5048775;28;20479;-61
2022/08/24 05:05:14;;;;;;;76.60;50.87;;;;;;;;;;5048805;28;20400;-61
2022/08/24 05:07:41;;;;;;;74.73;48.63;;;;;;;;;;5048564;28;20068;-61
2022/08/24 05:10:07;;;;;;;62.57;44.67;;;;;;;;;;5048795;28;20052;-61
2022/08/24 05:12:33;;;;;;;63.17;43.70;;;;;;;;;;5048874;28;20541;-61
2022/08/24 05:15:00;;;;;;;53.00;40.03;;;;;;;;;;5048303;28;20099;-61
2022/08/24 05:17:26;;;;;;;49.80;38.60;;;;;;;;;;5048785;28;20048;-61
2022/08/24 05:19:52;;;;;;;63.23;43.60;;;;;;;;;;5048889;28;20052;-61
2022/08/24 05:22:19;;;;;;;51.87;38.83;;;;;;;;;;5046782;28;20041;-61
2022/08/24 05:24:45;;;;;;;43.10;34.50;;;;;;;;;;5047830;28;20041;-61
2022/08/24 05:27:11;;;;;;;43.00;35.50;;;;;;;;;;5048850;28;20080;-61
2022/08/24 05:29:37;;;;;;;51.43;39.03;;;;;;;;;;5048337;28;20095;-61
2022/08/24 05:32:04;;;;;;;41.93;32.70;;;;;;;;;;5048219;28;20049;-61
2022/08/24 05:34:30;;;;;;;58.43;41.67;;;;;;;;;;5048402;28;20114;-61
2022/08/24 05:36:56;;;;;;;103.93;65.93;;;;;;;;;;5048066;28;20045;-61
2022/08/24 05:39:22;;;;;;;85.00;59.40;;;;;;;;;;5048280;28;20041;-61
2022/08/24 05:41:48;;;;;;;83.90;54.53;;;;;;;;;;5048252;28;20083;-60
2022/08/24 05:44:15;;;;;;;83.50;56.30;;;;;;;;;;5048081;28;20052;-60
2022/08/24 05:46:41;;;;;;;92.43;59.67;;;;;;;;;;5048530;28;20404;-60
2022/08/24 05:49:08;;;;;;;95.07;64.30;;;;;;;;;;5048068;28;20470;-60
2022/08/24 05:51:34;;;;;;;89.27;62.90;;;;;;;;;;5047508;28;20052;-60
2022/08/24 05:54:03;;;;;;;84.53;60.63;;;;;;;;;;5048330;28;20049;-60
2022/08/24 05:56:29;;;;;;;102.13;67.63;;;;;;;;;;5048348;28;20479;-60
2022/08/24 05:58:55;;;;;;;110.03;71.50;;;;;;;;;;5048280;28;20064;-61
2022/08/24 06:01:22;;;;;;;101.70;64.37;;;;;;;;;;5048024;28;20041;-61
2022/08/24 06:03:49;;;;;;;95.33;68.20;;;;;;;;;;5047900;28;20045;-60
2022/08/24 06:06:16;;;;;;;109.53;73.53;;;;;;;;;;5048244;28;20098;-61
2022/08/24 06:08:44;;;;;;;102.00;68.73;;;;;;;;;;5047225;28;20132;-61
2022/08/24 06:11:11;;;;;;;98.63;63.83;;;;;;;;;;5046974;28;20052;-61
2022/08/24 06:13:37;;;;;;;96.30;67.03;;;;;;;;;;5048302;28;20065;-60
2022/08/24 06:16:03;;;;;;;97.43;66.80;;;;;;;;;;5047743;28;20048;-61
2022/08/24 06:18:29;;;;;;;99.20;70.67;;;;;;;;;;5047817;28;20041;-61
2022/08/24 06:20:55;;;;;;;101.53;70.87;;;;;;;;;;5047425;28;20132;-61
2022/08/24 06:23:21;;;;;;;117.10;75.60;;;;;;;;;;5047527;28;20069;-61
2022/08/24 06:28:32;;;;;;;115.30;78.73;;;;;;;;;;5046583;28;20051;-61
2022/08/24 06:31:06;;;;;;;109.20;76.77;;;;;;;;;;5047253;28;20045;-61
2022/08/24 06:33:32;;;;;;;101.17;74.37;;;;;;;;;;5047745;28;20128;-61
2022/08/24 06:35:58;;;;;;;102.70;74.53;;;;;;;;;;5047705;28;20068;-61
2022/08/24 06:38:24;;;;;;;96.57;73.40;;;;;;;;;;5048230;28;20069;-61
2022/08/24 06:40:50;;;;;;;92.77;70.47;;;;;;;;;;5047534;28;20561;-61
2022/08/24 06:43:16;;;;;;;100.83;71.57;;;;;;;;;;5048022;28;20045;-61
2022/08/24 06:45:43;;;;;;;96.13;69.53;;;;;;;;;;5045555;28;20045;-61
2022/08/24 06:48:09;;;;;;;90.37;65.83;;;;;;;;;;5047796;28;20496;-60
2022/08/24 06:50:35;;;;;;;97.63;71.70;;;;;;;;;;5046676;28;20489;-61
2022/08/24 06:53:02;;;;;;;75.90;61.27;;;;;;;;;;5046626;28;20056;-60
2022/08/24 06:55:28;;;;;;;82.33;65.03;;;;;;;;;;5047873;28;20075;-61
2022/08/24 06:57:54;;;;;;;76.97;62.17;;;;;;;;;;5046851;28;20040;-61
2022/08/24 07:00:21;;;;;;;67.17;55.60;;;;;;;;;;5046978;28;20049;-61
2022/08/24 07:02:47;;;;;;;68.30;57.93;;;;;;;;;;5045843;28;20049;-61
2022/08/24 07:05:14;;;;;;;71.37;61.03;;;;;;;;;;5046790;28;20049;-61
2022/08/24 07:07:40;;;;;;;67.27;57.67;;;;;;;;;;5047181;28;20099;-60
2022/08/24 07:10:08;;;;;;;68.20;57.77;;;;;;;;;;5047739;28;20053;-61
2022/08/24 07:12:35;;;;;;;67.57;57.77;;;;;;;;;;5050174;28;20136;-61
2022/08/24 07:15:01;;;;;;;62.83;54.73;;;;;;;;;;5030993;28;20484;-60
2022/08/24 07:17:27;;;;;;;59.97;53.33;;;;;;;;;;5030951;28;20121;-61
2022/08/24 07:19:53;;;;;;;60.17;53.40;;;;;;;;;;5041849;28;20398;-61
2022/08/24 07:22:19;;;;;;;61.40;53.13;;;;;;;;;;5050275;28;20041;-61
2022/08/24 07:24:45;;;;;;;55.67;49.67;;;;;;;;;;5050853;28;20134;-61
2022/08/24 07:27:12;;;;;;;56.83;50.83;;;;;;;;;;5051218;28;20442;-61
2022/08/24 07:29:38;;;;;;;53.00;47.10;;;;;;;;;;5048918;28;20064;-61
2022/08/24 07:32:05;;;;;;;49.93;44.57;;;;;;;;;;5050317;28;20052;-61
2022/08/24 07:34:31;;;;;;;56.23;50.33;;;;;;;;;;5050072;28;20045;-60
2022/08/24 07:37:02;;;;;;;52.53;44.33;;;;;;;;;;5050049;28;20053;-61
2022/08/24 07:39:29;;;;;;;45.73;40.47;;;;;;;;;;5050522;28;20457;-60
2022/08/24 07:41:56;;;;;;;41.07;36.97;;;;;;;;;;5050789;28;20072;-61
2022/08/24 07:44:22;;;;;;;43.63;38.87;;;;;;;;;;5050550;28;20103;-61
2022/08/24 07:46:48;;;;;;;40.00;35.93;;;;;;;;;;5050418;28;20346;-61
2022/08/24 07:49:14;;;;;;;36.23;32.43;;;;;;;;;;5050230;28;20045;-61
2022/08/24 07:51:40;;;;;;;35.00;31.20;;;;;;;;;;5050379;28;20098;-61
2022/08/24 07:54:07;;;;;;;33.97;30.40;;;;;;;;;;5050682;28;20471;-61
2022/08/24 07:56:33;;;;;;;35.90;32.00;;;;;;;;;;5050654;28;20136;-61
2022/08/24 07:58:59;;;;;;;31.90;26.90;;;;;;;;;;5049770;28;20068;-61
2022/08/24 08:01:25;;;;;;;25.03;22.47;;;;;;;;;;5050071;28;20049;-61
2022/08/24 08:03:52;;;;;;;16.27;13.47;;;;;;;;;;5049762;28;21378;-61
2022/08/24 08:06:18;;;;;;;21.30;13.73;;;;;;;;;;5050238;28;20041;-61
2022/08/24 08:08:45;;;;;;;19.33;13.40;;;;;;;;;;5049618;28;20056;-61
2022/08/24 08:11:11;;;;;;;22.23;15.30;;;;;;;;;;5047954;28;20182;-61
2022/08/24 08:13:38;;;;;;;21.40;14.30;;;;;;;;;;5050162;28;20079;-61
2022/08/24 08:16:04;;;;;;;19.53;17.43;;;;;;;;;;5049952;28;20370;-61
2022/08/24 08:18:31;;;;;;;24.43;16.57;;;;;;;;;;5050081;28;20454;-61
2022/08/24 08:20:57;;;;;;;17.07;15.03;;;;;;;;;;5050063;28;20408;-61
2022/08/24 08:26:12;;;;;;;15.30;13.03;;;;;;;;;;5050273;28;20041;-61
2022/08/24 08:28:38;;;;;;;18.13;12.83;;;;;;;;;;5049363;28;20088;-61
2022/08/24 08:31:04;;;;;;;16.10;12.13;;;;;;;;;;5049504;28;20475;-61
2022/08/24 08:33:31;;;;;;;17.08;12.07;;;;;;;;;;5049137;28;20049;-61
2022/08/24 08:36:03;;;;;;;13.52;10.90;;;;;;;;;;5048974;28;20048;-61
2022/08/24 08:38:30;;;;;;;13.38;11.50;;;;;;;;;;5048776;28;20049;-61
2022/08/24 08:41:20;;;;;;;14.52;11.93;;;;;;;;;;5049287;28;20395;-61
2022/08/24 08:43:47;;;;;;;14.73;12.48;;;;;;;;;;5048991;28;20566;-61
2022/08/24 08:46:31;;;;;;;15.00;12.48;;;;;;;;;;5049590;28;20049;-61
2022/08/24 08:49:09;;;;;;;13.55;11.57;;;;;;;;;;5049123;28;20041;-61
2022/08/24 08:51:42;;;;;;;14.65;10.95;;;;;;;;;;5049533;28;20048;-61
2022/08/24 08:54:08;;;;;;;;;;;;;;;;;;5048270;28;20052;-61
2022/08/24 08:56:52;;;;;;;16.10;13.57;;;;;;;;;;5049333;28;19928;-61
2022/08/24 08:59:35;;;;;;;14.70;11.23;;;;;;;;;;5048877;28;20088;-61
2022/08/24 09:02:01;;;;;;;15.63;12.15;;;;;;;;;;5049354;28;20132;-61
2022/08/24 09:04:27;;;;;;;12.15;9.68;;;;;;;;;;5049330;28;20088;-61
2022/08/24 09:07:04;;;;;;;12.88;10.25;;;;;;;;;;5048816;28;20084;-61
2022/08/24 09:09:56;;;;;;;12.88;10.15;;;;;;;;;;5048821;28;20081;-61
2022/08/24 09:12:26;;;;;;;11.90;8.20;;;;;;;;;;5047762;28;20053;-61
2022/08/24 09:15:10;;;;;;;14.43;8.73;;;;;;;;;;5049060;28;20862;-61
2022/08/24 09:17:44;;;;;;;13.63;11.70;;;;;;;;;;5048619;28;20041;-61
2022/08/24 09:20:29;;;;;;;13.07;10.32;;;;;;;;;;5048949;28;20578;-61
2022/08/24 09:23:09;;;;;;;14.50;10.13;;;;;;;;;;5048229;28;20048;-61
2022/08/24 09:25:54;;;;;;;11.45;8.85;;;;;;;;;;5048324;28;20084;-61
2022/08/24 09:28:37;;;;;;;10.98;9.48;;;;;;;;;;5047829;28;20130;-61
2022/08/24 09:31:09;;;;;;;12.02;10.68;;;;;;;;;;5048340;28;20045;-61
2022/08/24 09:33:36;;;;;;;16.83;8.25;;;;;;;;;;5048016;28;20053;-61
2022/08/24 09:36:02;;;;;;;10.13;8.18;;;;;;;;;;5048551;28;20128;-61
2022/08/24 09:38:35;;;;;;;11.98;7.72;;;;;;;;;;5047981;28;20131;-61
2022/08/24 09:41:10;;;;;;;11.45;9.30;;;;;;;;;;5048292;28;20656;-62
2022/08/24 09:43:56;;;;;;;11.70;8.13;;;;;;;;;;5048442;28;20132;-61
2022/08/24 09:46:22;;;;;;;16.17;8.95;;;;;;;;;;5048026;28;20092;-62
2022/08/24 09:48:51;;;;;;;11.40;8.75;;;;;;;;;;5048048;28;20511;-61
2022/08/24 09:51:17;;;;;;;12.95;9.90;;;;;;;;;;5047840;28;20079;-62
2022/08/24 09:53:46;;;;;;;14.32;8.73;;;;;;;;;;5048053;28;20128;-61
2022/08/24 09:56:31;;;;;;;9.48;8.32;;;;;;;;;;5048506;28;20049;-62
2022/08/24 09:59:04;;;;;;;13.27;8.63;;;;;;;;;;5048080;28;20484;-61
2022/08/24 10:01:36;;;;;;;8.70;7.57;;;;;;;;;;5047731;28;20592;-62
2022/08/24 10:04:10;;;;;;;10.20;7.57;;;;;;;;;;5048219;28;20049;-62
2022/08/24 10:06:42;;;;;;;8.73;5.32;;;;;;;;;;5047960;28;20083;-61
2022/08/24 10:09:17;;;;;;;8.23;6.38;;;;;;;;;;5048105;28;20545;-61
2022/08/24 10:11:46;;;;;;;9.75;5.32;;;;;;;;;;5047363;28;20578;-61
2022/08/24 10:14:29;;;;;;;11.77;6.15;;;;;;;;;;5047600;28;20116;-61
2022/08/24 10:17:04;;;;;;;9.48;6.03;;;;;;;;;;5047360;28;20041;-61
2022/08/24 10:19:49;;;;;;;9.65;6.10;;;;;;;;;;5047039;28;20051;-62
2022/08/24 10:22:37;;;;;;;8.40;6.25;;;;;;;;;;5047653;28;20098;-62
2022/08/24 10:25:14;;;;;;;8.85;6.47;;;;;;;;;;5047104;28;20087;-61
2022/08/24 10:27:42;;;;;;;11.23;7.32;;;;;;;;;;5047195;28;20117;-62
2022/08/24 10:30:24;;;;;;;7.63;6.65;;;;;;;;;;5046840;28;20102;-62
2022/08/24 10:32:56;;;;;;;5.93;4.18;;;;;;;;;;5047817;28;20095;-62
2022/08/24 10:35:28;;;;;;;7.07;3.38;;;;;;;;;;5047733;28;20053;-62
2022/08/24 10:41:09;;;;;;;4.70;3.10;;;;;;;;;;5047410;28;20509;-62
2022/08/24 10:43:38;;;;;;;4.20;2.45;;;;;;;;;;5048017;28;20136;-62
2022/08/24 10:46:19;;;;;;;4.15;2.80;;;;;;;;;;5046280;28;20068;-62
2022/08/24 10:48:56;;;;;;;6.30;3.10;;;;;;;;;;5045298;28;20077;-62
2022/08/24 10:51:35;;;;;;;6.63;2.80;;;;;;;;;;5047366;28;20222;-62
2022/08/24 10:54:03;;;;;;;4.30;2.55;;;;;;;;;;5046702;28;20049;-62
2022/08/24 10:56:35;;;;;;;3.70;2.22;;;;;;;;;;5046770;28;20052;-62
2022/08/24 10:59:21;;;;;;;5.40;2.97;;;;;;;;;;5047537;28;20124;-62
2022/08/24 11:02:05;;;;;;;4.88;2.72;;;;;;;;;;5047265;28;20144;-62
2022/08/24 11:04:34;;;;;;;4.28;1.77;;;;;;;;;;5047233;28;20045;-62
2022/08/24 11:07:06;;;;;;;5.90;1.55;;;;;;;;;;5047260;28;20055;-62
2022/08/24 11:09:52;;;;;;;4.80;1.02;;;;;;;;;;5046705;28;20068;-61
2022/08/24 11:12:23;;;;;;;4.43;1.30;;;;;;;;;;5046593;28;20044;-62
2022/08/24 11:14:50;;;;;;;2.40;1.13;;;;;;;;;;5047487;28;20057;-61
2022/08/24 11:17:17;;;;;;;3.40;1.58;;;;;;;;;;5046963;28;20037;-62
2022/08/24 11:19:44;;;;;;;3.95;1.40;;;;;;;;;;5047077;28;20103;-62
2022/08/24 11:22:29;;;;;;;4.07;1.52;;;;;;;;;;5047003;28;20086;-62
2022/08/24 11:24:58;;;;;;;2.92;1.38;;;;;;;;;;5046783;28;20049;-62
2022/08/24 11:27:34;;;;;;;3.28;1.33;;;;;;;;;;5046555;28;20045;-62
2022/08/24 11:30:05;;;;;;;3.50;1.63;;;;;;;;;;5046712;28;20059;-62
2022/08/24 11:32:31;;;;;;;4.70;1.70;;;;;;;;;;5047063;28;20041;-62
2022/08/24 11:35:01;;;;;;;6.97;1.70;;;;;;;;;;5047322;28;20047;-62
2022/08/24 11:37:34;;;;;;;2.72;1.17;;;;;;;;;;5047097;28;20144;-62
2022/08/24 11:40:01;;;;;;;3.67;1.00;;;;;;;;;;5046154;28;20495;-62
2022/08/24 11:42:52;;;;;;;4.55;1.15;;;;;;;;;;5047100;28;20091;-62
2022/08/24 11:45:24;;;;;;;4.53;1.20;;;;;;;;;;5046966;28;20076;-62
2022/08/24 11:47:50;;;;;;;2.65;1.40;;;;;;;;;;5047115;28;20053;-62
2022/08/24 11:50:26;;;;;;;3.25;1.30;;;;;;;;;;5046638;28;20494;-62
2022/08/24 11:52:59;;;;;;;2.78;1.10;;;;;;;;;;5047474;28;20132;-62
2022/08/24 11:55:35;;;;;;;5.03;1.00;;;;;;;;;;5046911;28;20044;-62
2022/08/24 11:58:13;;;;;;;4.93;1.38;;;;;;;;;;5049774;28;20049;-62
2022/08/24 12:01:00;;;;;;;2.30;0.95;;;;;;;;;;5050709;28;20048;-62
2022/08/24 12:03:32;;;;;;;3.30;1.20;;;;;;;;;;5049530;28;20053;-62
2022/08/24 12:06:02;;;;;;;4.47;1.40;;;;;;;;;;5050174;28;20049;-62
2022/08/24 12:08:39;;;;;;;3.03;1.10;;;;;;;;;;5050558;28;20087;-61
2022/08/24 12:11:13;;;;;;;2.55;1.00;;;;;;;;;;5049338;28;20418;-62
2022/08/24 12:13:39;;;;;;;2.50;1.30;;;;;;;;;;5050464;28;20057;-62
2022/08/24 12:16:05;;;;;;;2.65;1.15;;;;;;;;;;5050159;28;20053;-62
2022/08/24 12:18:37;;;;;;;4.63;1.70;;;;;;;;;;5050186;28;20049;-62
2022/08/24 12:21:05;;;;;;;2.60;1.17;;;;;;;;;;5050024;28;20091;-62
2022/08/24 12:23:37;;;;;;;1.67;1.00;;;;;;;;;;5049582;28;20041;-62
2022/08/24 12:26:03;;;;;;;;;;;;;;;;;;5050436;28;20562;-62
2022/08/24 12:28:37;;;;;;;3.15;1.10;;;;;;;;;;5049873;28;20069;-62
2022/08/24 12:31:09;;;;;;;2.80;0.90;;;;;;;;;;5049856;28;20107;-62
2022/08/24 12:33:36;;;;;;;3.47;1.17;;;;;;;;;;5049374;28;20057;-62
2022/08/24 12:36:03;;;;;;;2.38;0.75;;;;;;;;;;5050014;28;20052;-62
2022/08/24 12:38:35;;;;;;;1.83;0.90;;;;;;;;;;5049030;28;20108;-62
2022/08/24 12:41:03;;;;;;;2.47;1.02;;;;;;;;;;5049105;28;20091;-62
2022/08/24 12:43:47;;;;;;;3.10;0.88;;;;;;;;;;5049288;28;20063;-62
2022/08/24 12:46:15;;;;;;;2.42;1.00;;;;;;;;;;5049052;28;20106;-62
2022/08/24 12:48:52;;;;;;;3.42;0.80;;;;;;;;;;5049735;28;20095;-62
2022/08/24 12:51:28;;;;;;;2.78;0.63;;;;;;;;;;5049607;28;20044;-62
2022/08/24 12:54:06;;;;;;;3.33;0.90;;;;;;;;;;5049558;28;20052;-62
2022/08/24 12:56:32;;;;;;;1.60;0.63;;;;;;;;;;5049438;28;20392;-62
2022/08/24 12:59:01;;;;;;;1.10;0.60;;;;;;;;;;5049141;28;20147;-62
2022/08/24 13:01:32;;;;;;;1.75;0.60;;;;;;;;;;5049178;28;20637;-62
2022/08/24 13:04:03;;;;;;;1.23;0.57;;;;;;;;;;5049337;28;20132;-62
2022/08/24 13:06:38;;;;;;;1.40;0.55;;;;;;;;;;5049596;28;20056;-62
2022/08/24 13:09:06;;;;;;;3.13;0.70;;;;;;;;;;5048686;28;20060;-62
2022/08/24 13:11:33;;;;;;;1.55;0.90;;;;;;;;;;5048742;28;20045;-62
2022/08/24 13:14:16;;;;;;;1.48;0.60;;;;;;;;;;5048988;28;20045;-62
2022/08/24 13:16:47;;;;;;;2.20;0.65;;;;;;;;;;5048676;28;20395;-62
2022/08/24 13:19:22;;;;;;;3.55;0.80;;;;;;;;;;5048350;28;20052;-63
2022/08/24 13:21:51;;;;;;;1.30;0.70;;;;;;;;;;5048284;28;20561;-62
2022/08/24 13:24:38;;;;;;;0.88;0.60;;;;;;;;;;5048070;28;20487;-62
2022/08/24 13:27:14;;;;;;;5.97;1.10;;;;;;;;;;5047693;28;20738;-62
2022/08/24 13:29:52;;;;;;;2.85;0.70;;;;;;;;;;5048218;28;20057;-62
2022/08/24 13:32:29;;;;;;;2.40;0.63;;;;;;;;;;5048163;28;20048;-62
2022/08/24 13:34:56;;;;;;;1.52;0.80;;;;;;;;;;5048089;28;20128;-62
2022/08/24 13:37:23;;;;;;;1.70;0.80;;;;;;;;;;5047644;28;20408;-62
2022/08/24 13:40:04;;;;;;;1.83;0.70;;;;;;;;;;5047903;28;20045;-62
2022/08/24 13:42:49;;;;;;;1.60;0.70;;;;;;;;;;5048428;28;20096;-62
2022/08/24 13:45:18;;;;;;;3.50;0.73;;;;;;;;;;5047159;28;20055;-62
2022/08/24 13:47:51;;;;;;;1.38;0.90;;;;;;;;;;5047792;28;20565;-62
2022/08/24 13:50:20;;;;;;;1.38;0.75;;;;;;;;;;5046998;28;20136;-62
2022/08/24 13:52:47;;;;;;;4.63;0.82;;;;;;;;;;5048192;28;20045;-62
2022/08/24 13:55:13;;;;;;;4.95;0.95;;;;;;;;;;5048048;28;20187;-62
2022/08/24 13:57:41;;;;;;;4.32;0.88;;;;;;;;;;5046456;28;20045;-62
2022/08/24 14:00:25;;;;;;;2.72;1.25;;;;;;;;;;5047640;28;20045;-62
2022/08/24 14:03:03;;;;;;;4.00;1.25;;;;;;;;;;5047810;28;20087;-62
2022/08/24 14:05:29;;;;;;;3.08;1.13;;;;;;;;;;5047825;28;20112;-62
2022/08/24 14:07:58;;;;;;;3.70;1.00;;;;;;;;;;5047419;28;20040;-62
2022/08/24 14:10:39;;;;;;;2.95;0.90;;;;;;;;;;5047422;28;20441;-62
2022/08/24 14:13:20;;;;;;;2.67;0.93;;;;;;;;;;5047223;28;20150;-62
2022/08/24 14:17:50;;;;;;;1.50;0.70;;;;;;;;;;5047537;28;20086;-62
2022/08/24 14:18:49;;;;;;;1.48;0.93;;;;;;;;;;5047705;28;20052;-62
2022/08/24 14:21:17;;;;;;;2.35;1.20;;;;;;;;;;5046056;28;20374;-61
2022/08/24 14:23:50;;;;;;;5.88;1.25;;;;;;;;;;5047348;28;20133;-60
2022/08/24 14:26:35;;;;;;;1.67;0.88;;;;;;;;;;5047176;28;20060;-61
2022/08/24 14:29:16;;;;;;;2.25;0.90;;;;;;;;;;5047573;28;20462;-61
2022/08/24 14:31:55;;;;;;;3.97;1.13;;;;;;;;;;5047331;28;20134;-61
2022/08/24 14:34:40;;;;;;;2.30;0.80;;;;;;;;;;5046538;28;20831;-61
2022/08/24 14:37:09;;;;;;;2.97;0.90;;;;;;;;;;5039519;28;20064;-61
2022/08/24 14:39:38;;;;;;;3.83;1.10;;;;;;;;;;5046567;28;20352;-61
2022/08/24 14:42:14;;;;;;;1.92;1.00;;;;;;;;;;5047158;28;20076;-61
2022/08/24 14:44:49;;;;;;;4.53;0.80;;;;;;;;;;5047334;28;20123;-61
2022/08/24 14:47:25;;;;;;;1.98;0.68;;;;;;;;;;5046451;28;20182;-61
2022/08/24 14:50:10;;;;;;;2.55;0.85;;;;;;;;;;5047658;28;20041;-61
2022/08/24 14:52:50;;;;;;;6.20;1.35;;;;;;;;;;5047199;28;20425;-61